首页
METAR-TAF:

METAR-TAF

机场 :

Pocatello Regional Airport

波卡特洛, 爱达荷州, 美国

纬度: 42-55-13N, 经度: 112-34-16W, 海拔: 1356米

当前天气观测

该预报发布于43分钟前的01:53 UTC
静风
温度 24°C
湿度 29%
气压 1014 hPa
能見度: 16.1公里
天空无云

METAR: KPIH 010153Z 00000KT 10SM CLR 24/05 A2994 RMK AO2 SLP091 T02390050

时间: 20:36 (02:36 UTC)

预报

该预报发布于3小时和16分钟前的23:20 UTC
预报有效从01日的 00点(UTC)到 01日的 24点(UTC)
风速6节,风向北转西北
能見度: 10公里
少量云层高于7000英尺
少量云层高于25000英尺
从 01日的 1600点(UTC)
风速14节,风向西南
能見度: 10公里
散云层高于25000英尺
从 01日的 2000点(UTC)
风速16节,风向西南,有时为26节阵风
能見度: 10公里
散云层高于25000英尺

TAF: KPIH 312320Z 0100/0124 33006KT P6SM FEW070 FEW250 FM011600 23014KT P6SM SCT250 FM012000 23016G26KT P6SM SCT250

超过4000个机场的气象观测和天气预报(METAR&TAF报告)。

可查询的气象台以黄色和红色小点在地图上表示。

将鼠标移到小点上方,可查看气象台名称。

然后点击查看天气观测和预报。

如需切换地图:点击带黑十字的绿色按钮放大地图;点击带横线的绿色按钮缩小地图;或者点击绿色箭头查看邻近地区的地图。


METAR-TAF: